Map

Track Data

SID SEASON NUMBER BASIN SUBBASIN NAME ISO_TIME NATURE LAT LON WMO_WIND WMO_PRES WMO_AGENCY TRACK_TYPE DIST2LAND LANDFALL IFLAG USA_AGENCY USA_ATCF_ID USA_LAT USA_LON USA_RECORD USA_STATUS USA_WIND USA_PRES USA_SSHS USA_R34_NE USA_R34_SE USA_R34_SW USA_R34_NW USA_R50_NE USA_R50_SE USA_R50_SW USA_R50_NW USA_R64_NE USA_R64_SE USA_R64_SW USA_R64_NW USA_POCI USA_ROCI USA_RMW USA_EYE TOKYO_LAT TOKYO_LON TOKYO_GRADE TOKYO_WIND TOKYO_PRES TOKYO_R50_DIR TOKYO_R50_LONG TOKYO_R50_SHORT TOKYO_R30_DIR TOKYO_R30_LONG TOKYO_R30_SHORT TOKYO_LAND CMA_LAT CMA_LON CMA_CAT CMA_WIND CMA_PRES HKO_LAT HKO_LON HKO_CAT HKO_WIND HKO_PRES NEWDELHI_LAT NEWDELHI_LON NEWDELHI_GRADE NEWDELHI_WIND NEWDELHI_PRES NEWDELHI_CI NEWDELHI_DP NEWDELHI_POCI REUNION_LAT REUNION_LON REUNION_TYPE REUNION_WIND REUNION_PRES REUNION_TNUM REUNION_CI REUNION_RMW REUNION_R34_NE REUNION_R34_SE REUNION_R34_SW REUNION_R34_NW REUNION_R50_NE REUNION_R50_SE REUNION_R50_SW REUNION_R50_NW REUNION_R64_NE REUNION_R64_SE REUNION_R64_SW REUNION_R64_NW BOM_LAT BOM_LON BOM_TYPE BOM_WIND BOM_PRES BOM_TNUM BOM_CI BOM_RMW BOM_R34_NE BOM_R34_SE BOM_R34_SW BOM_R34_NW BOM_R50_NE BOM_R50_SE BOM_R50_SW BOM_R50_NW BOM_R64_NE BOM_R64_SE BOM_R64_SW BOM_R64_NW BOM_ROCI BOM_POCI BOM_EYE BOM_POS_METHOD BOM_PRES_METHOD NADI_LAT NADI_LON NADI_CAT NADI_WIND NADI_PRES WELLINGTON_LAT WELLINGTON_LON WELLINGTON_WIND WELLINGTON_PRES DS824_LAT DS824_LON DS824_STAGE DS824_WIND DS824_PRES TD9636_LAT TD9636_LON TD9636_STAGE TD9636_WIND TD9636_PRES TD9635_LAT TD9635_LON TD9635_WIND TD9635_PRES TD9635_ROCI NEUMANN_LAT NEUMANN_LON NEUMANN_CLASS NEUMANN_WIND NEUMANN_PRES MLC_LAT MLC_LON MLC_CLASS MLC_WIND MLC_PRES USA_GUST BOM_GUST BOM_GUST_PER REUNION_GUST REUNION_GUST_PER USA_SEAHGT USA_SEARAD_NE USA_SEARAD_SE USA_SEARAD_SW USA_SEARAD_NW STORM_SPEED STORM_DIR
1900309N11128 1900 41 WP MM NOT_NAMED 1900-11-04 16:00:00 NR 11.2000 128.400 main 284 263 __________O___ -1 11.2000 128.400 7 5 283
1900309N11128 1900 41 WP MM NOT_NAMED 1900-11-04 18:00:00 NR 11.2377 128.227 main 263 242 __________P___ -1 11.2377 128.227 7 5 282
1900309N11128 1900 41 WP MM NOT_NAMED 1900-11-04 21:00:00 NR 11.2926 127.958 main 242 210 __________P___ -1 11.2926 127.958 7 6 281
1900309N11128 1900 41 WP MM NOT_NAMED 1900-11-05 00:00:00 NR 11.3432 127.662 main 210 169 __________P___ -1 11.3432 127.662 7 6 279
1900309N11128 1900 41 WP MM NOT_NAMED 1900-11-05 03:00:00 NR 11.3872 127.324 main 169 159 __________P___ -1 11.3872 127.324 7 7 277
1900309N11128 1900 41 WP MM NOT_NAMED 1900-11-05 04:00:00 NR 11.4000 127.200 main 159 128 __________O___ -1 11.4000 127.200 3 8 275
1900309N11128 1900 41 WP MM NOT_NAMED 1900-11-05 06:00:00 NR 11.4228 126.931 main 128 94 __________P___ -1 11.4228 126.931 3 8 275
1900309N11128 1900 41 WP MM NOT_NAMED 1900-11-05 09:00:00 NR 11.4568 126.484 main 94 45 __________P___ -1 11.4568 126.484 3 9 275
1900309N11128 1900 41 WP MM NOT_NAMED 1900-11-05 12:00:00 NR 11.5016 125.995 main 45 10 __________P___ -1 11.5016 125.995 3 10 277
1900309N11128 1900 41 WP MM NOT_NAMED 1900-11-05 15:00:00 NR 11.5698 125.477 main 10 0 __________P___ -1 11.5698 125.477 3 10 278
1900309N11128 1900 41 WP MM NOT_NAMED 1900-11-05 16:00:00 NR 11.6000 125.300 main 0 0 __________O___ -1 11.6000 125.300 4 10 281
1900309N11128 1900 41 WP MM NOT_NAMED 1900-11-05 18:00:00 NR 11.6664 124.963 main 0 10 __________P___ -1 11.6664 124.963 4 10 283
1900309N11128 1900 41 WP MM NOT_NAMED 1900-11-05 21:00:00 NR 11.7911 124.440 main 33 0 __________P___ -1 11.7911 124.440 4 11 285
1900309N11128 1900 41 WP MM NOT_NAMED 1900-11-06 00:00:00 NR 11.9461 123.889 main 0 0 __________P___ -1 11.9461 123.889 4 12 287
1900309N11128 1900 41 WP MM NOT_NAMED 1900-11-06 03:00:00 NR 12.1314 123.304 main 0 0 __________P___ -1 12.1314 123.304 4 12 288
1900309N11128 1900 41 WP MM NOT_NAMED 1900-11-06 04:00:00 NR 12.2000 123.100 main 10 10 __________O___ -1 12.2000 123.100 4 13 288
1900309N11128 1900 41 WP MM NOT_NAMED 1900-11-06 06:00:00 NR 12.3335 122.665 main 55 43 __________P___ -1 12.3335 122.665 4 14 288
1900309N11128 1900 41 WP MM NOT_NAMED 1900-11-06 09:00:00 NR 12.5587 121.982 main 43 0 __________P___ -1 12.5587 121.982 4 14 290
1900309N11128 1900 41 WP MM NOT_NAMED 1900-11-06 12:00:00 NR 12.8137 121.287 main 0 0 __________P___ -1 12.8137 121.287 4 14 292
1900309N11128 1900 41 WP MM NOT_NAMED 1900-11-06 15:00:00 NR 13.0984 120.614 main 11 0 __________P___ -1 13.0984 120.614 4 14 294
1900309N11128 1900 41 WP MM NOT_NAMED 1900-11-06 16:00:00 NR 13.2000 120.400 main 10 10 __________O___ -1 13.2000 120.400 4 14 298
1900309N11128 1900 41 WP MM NOT_NAMED 1900-11-06 18:00:00 NR 13.4233 119.984 main 32 43 __________P___ -1 13.4233 119.984 4 14 301
1900309N11128 1900 41 WP MM NOT_NAMED 1900-11-06 21:00:00 NR 13.7842 119.391 main 107 107 __________P___ -1 13.7842 119.391 4 13 303
1900309N11128 1900 41 WP MM NOT_NAMED 1900-11-07 00:00:00 NR 14.1509 118.844 main 155 155 __________P___ -1 14.1509 118.844 4 12 305
1900309N11128 1900 41 WP MM NOT_NAMED 1900-11-07 03:00:00 NR 14.4951 118.351 main 186 196 __________P___ -1 14.4951 118.351 4 12 306
1900309N11128 1900 41 WP MM NOT_NAMED 1900-11-07 04:00:00 NR 14.6000 118.200 main 203 203 __________O___ -1 14.6000 118.200 4 10 303
1900309N11128 1900 41 WP MM NOT_NAMED 1900-11-07 06:00:00 NR 14.7702 117.915 main 225 225 __________P___ -1 14.7702 117.915 4 9 302
1900309N11128 1900 41 WP MM NOT_NAMED 1900-11-07 09:00:00 NR 14.9942 117.539 main 261 261 __________P___ -1 14.9942 117.539 4 8 302
1900309N11128 1900 41 WP MM NOT_NAMED 1900-11-07 12:00:00 NR 15.2028 117.206 main 282 282 __________P___ -1 15.2028 117.206 4 8 305
1900309N11128 1900 41 WP MM NOT_NAMED 1900-11-07 15:00:00 NR 15.4209 116.900 main 307 304 __________P___ -1 15.4209 116.900 4 7 307
1900309N11128 1900 41 WP MM NOT_NAMED 1900-11-07 16:00:00 NR 15.5000 116.800 main 315 315 __________O___ -1 15.5000 116.800 4 8 310
1900309N11128 1900 41 WP MM NOT_NAMED 1900-11-07 18:00:00 NR 15.6802 116.581 main 333 333 __________P___ -1 15.6802 116.581 4 8 312
1900309N11128 1900 41 WP MM NOT_NAMED 1900-11-07 21:00:00 NR 15.9694 116.264 main 363 374 __________P___ -1 15.9694 116.264 4 8 315
1900309N11128 1900 41 WP MM NOT_NAMED 1900-11-08 00:00:00 NR 16.2757 115.965 main 396 407 __________P___ -1 16.2757 115.965 4 8 318
1900309N11128 1900 41 WP MM NOT_NAMED 1900-11-08 03:00:00 NR 16.5929 115.687 main 432 432 __________P___ -1 16.5929 115.687 4 8 321
1900309N11128 1900 41 WP MM NOT_NAMED 1900-11-08 04:00:00 NR 16.7000 115.600 main 444 444 __________O___ -1 16.7000 115.600 4 8 321
1900309N11128 1900 41 WP MM NOT_NAMED 1900-11-08 06:00:00 NR 16.9109 115.420 main 469 469 __________P___ -1 16.9109 115.420 4 8 322
1900309N11128 1900 41 WP MM NOT_NAMED 1900-11-08 09:00:00 NR 17.2336 115.168 main 498 467 __________P___ -1 17.2336 115.168 4 8 325
1900309N11128 1900 41 WP MM NOT_NAMED 1900-11-08 12:00:00 NR 17.5612 114.944 main 467 443 __________P___ -1 17.5612 114.944 4 8 329
1900309N11128 1900 41 WP MM NOT_NAMED 1900-11-08 15:00:00 NR 17.8904 114.755 main 443 428 __________P___ -1 17.8904 114.755 4 7 332
1900309N11128 1900 41 WP MM NOT_NAMED 1900-11-08 16:00:00 NR 18.0000 114.700 main 428 409 __________O___ -1 18.0000 114.700 4 7 335
1900309N11128 1900 41 WP MM NOT_NAMED 1900-11-08 18:00:00 NR 18.1956 114.602 main 409 387 __________P___ -1 18.1956 114.602 4 6 337
1900309N11128 1900 41 WP MM NOT_NAMED 1900-11-08 21:00:00 NR 18.4886 114.486 main 387 368 __________P___ -1 18.4886 114.486 4 6 342
1900309N11128 1900 41 WP MM NOT_NAMED 1900-11-09 00:00:00 NR 18.8034 114.398 main 368 330 __________P___ -1 18.8034 114.398 4 7 347
1900309N11128 1900 41 WP MM NOT_NAMED 1900-11-09 03:00:00 NR 19.1648 114.324 main 330 320 __________P___ -1 19.1648 114.324 4 8 349
1900309N11128 1900 41 WP MM NOT_NAMED 1900-11-09 04:00:00 NR 19.3000 114.300 main 320 285 __________O___ -1 19.3000 114.300 4 9 349
1900309N11128 1900 41 WP MM NOT_NAMED 1900-11-09 06:00:00 NR 19.6122 114.226 main 285 231 __________P___ -1 19.6122 114.226 4 10 349
1900309N11128 1900 41 WP MM NOT_NAMED 1900-11-09 09:00:00 NR 20.1311 114.122 main 231 169 __________P___ -1 20.1311 114.122 4 11 351
1900309N11128 1900 41 WP MM NOT_NAMED 1900-11-09 12:00:00 NR 20.6803 114.040 main 169 123 __________P___ -1 20.6803 114.040 4 11 354
1900309N11128 1900 41 WP MM NOT_NAMED 1900-11-09 15:00:00 NR 21.2252 114.001 main 123 103 __________P___ -1 21.2252 114.001 4 11 357
1900309N11128 1900 41 WP MM NOT_NAMED 1900-11-09 16:00:00 NR 21.4000 114.000 main 103 73 __________O___ -1 21.4000 114.000 4 10 0
1900309N11128 1900 41 WP MM NOT_NAMED 1900-11-09 18:00:00 NR 21.7339 114.020 main 73 22 __________P___ -1 21.7339 114.020 4 10 6
1900309N11128 1900 41 WP MM NOT_NAMED 1900-11-09 21:00:00 NR 22.2013 114.096 main 22 0 __________P___ -1 22.2013 114.096 4 9 11
1900309N11128 1900 41 WP MM NOT_NAMED 1900-11-10 00:00:00 NR 22.6396 114.212 main 0 0 __________P___ -1 22.6396 114.212 4 9 15
1900309N11128 1900 41 WP MM NOT_NAMED 1900-11-10 03:00:00 NR 23.0611 114.351 main 0 0 __________P___ -1 23.0611 114.351 4 9 17
1900309N11128 1900 41 WP MM NOT_NAMED 1900-11-10 04:00:00 NR 23.2000 114.400 main 0 __________O___ -1 23.2000 114.400 4 9 13

Digital Typhoon Data and Search

About IBTrACS Database

This database is a web-friendly format of International Best Track Archive for Climate Stewardship (IBTrACS), a global best track data archive curated by NOAA dating back to 1842.

Updated: 2021-10-21